sensor_id;sensor_type;location;lat;lon;timestamp;pressure;altitude;pressure_sealevel;temperature;humidity
16355;BME280;8287;51.644;8.494;2023-04-30T00:00:27;101072.03;;;9.54;85.12
16355;BME280;8287;51.644;8.494;2023-04-30T00:02:53;101079.22;;;9.49;85.41
16355;BME280;8287;51.644;8.494;2023-04-30T00:05:21;101080.34;;;9.43;84.86
16355;BME280;8287;51.644;8.494;2023-04-30T00:07:48;101077.28;;;9.31;85.86
16355;BME280;8287;51.644;8.494;2023-04-30T00:10:14;101077.81;;;9.28;86.63
16355;BME280;8287;51.644;8.494;2023-04-30T00:12:41;101077.88;;;9.23;86.52
16355;BME280;8287;51.644;8.494;2023-04-30T00:15:08;101071.28;;;9.20;86.26
16355;BME280;8287;51.644;8.494;2023-04-30T00:17:35;101071.03;;;9.17;86.61
16355;BME280;8287;51.644;8.494;2023-04-30T00:20:03;101079.22;;;9.15;86.32
16355;BME280;8287;51.644;8.494;2023-04-30T00:22:31;101077.66;;;9.14;85.86
16355;BME280;8287;51.644;8.494;2023-04-30T00:24:58;101072.09;;;9.16;85.83
16355;BME280;8287;51.644;8.494;2023-04-30T00:27:25;101077.16;;;9.12;85.14
16355;BME280;8287;51.644;8.494;2023-04-30T00:29:51;101066.91;;;9.01;85.83
16355;BME280;8287;51.644;8.494;2023-04-30T00:32:19;101071.97;;;8.97;85.84
16355;BME280;8287;51.644;8.494;2023-04-30T00:34:45;101070.16;;;8.93;86.56
16355;BME280;8287;51.644;8.494;2023-04-30T00:37:12;101080.47;;;8.89;86.17
16355;BME280;8287;51.644;8.494;2023-04-30T00:39:40;101078.09;;;8.88;86.63
16355;BME280;8287;51.644;8.494;2023-04-30T00:42:06;101067.28;;;8.84;87.10
16355;BME280;8287;51.644;8.494;2023-04-30T00:44:33;101072.84;;;8.83;87.20
16355;BME280;8287;51.644;8.494;2023-04-30T00:47:00;101075.50;;;8.83;86.77
16355;BME280;8287;51.644;8.494;2023-04-30T00:49:26;101075.25;;;8.79;86.82
16355;BME280;8287;51.644;8.494;2023-04-30T00:51:53;101074.75;;;8.77;86.52
16355;BME280;8287;51.644;8.494;2023-04-30T00:54:20;101081.09;;;8.76;86.20
16355;BME280;8287;51.644;8.494;2023-04-30T00:56:48;101085.34;;;8.72;86.63
16355;BME280;8287;51.644;8.494;2023-04-30T00:59:15;101084.06;;;8.65;87.13
16355;BME280;8287;51.644;8.494;2023-04-30T01:01:42;101082.00;;;8.57;87.24
16355;BME280;8287;51.644;8.494;2023-04-30T01:04:09;101090.47;;;8.49;88.01
16355;BME280;8287;51.644;8.494;2023-04-30T01:06:36;101081.78;;;8.43;88.70
16355;BME280;8287;51.644;8.494;2023-04-30T01:09:03;101094.47;;;8.41;88.93
16355;BME280;8287;51.644;8.494;2023-04-30T01:11:45;101087.59;;;8.45;87.82
16355;BME280;8287;51.644;8.494;2023-04-30T01:14:23;101084.97;;;8.40;87.92
16355;BME280;8287;51.644;8.494;2023-04-30T01:16:59;101086.38;;;8.23;88.29
16355;BME280;8287;51.644;8.494;2023-04-30T01:19:35;101092.41;;;8.28;89.38
16355;BME280;8287;51.644;8.494;2023-04-30T01:22:04;101081.63;;;8.15;89.02
16355;BME280;8287;51.644;8.494;2023-04-30T01:24:47;101080.84;;;8.09;89.31
16355;BME280;8287;51.644;8.494;2023-04-30T01:27:23;101078.16;;;8.14;89.60
16355;BME280;8287;51.644;8.494;2023-04-30T01:29:57;101078.50;;;7.98;89.04
16355;BME280;8287;51.644;8.494;2023-04-30T01:32:24;101085.63;;;7.97;89.34
16355;BME280;8287;51.644;8.494;2023-04-30T01:34:51;101086.69;;;7.91;89.26
16355;BME280;8287;51.644;8.494;2023-04-30T01:37:22;101089.59;;;7.90;89.43
16355;BME280;8287;51.644;8.494;2023-04-30T01:39:58;101085.38;;;7.79;89.92
16355;BME280;8287;51.644;8.494;2023-04-30T01:42:36;101090.41;;;7.85;89.95
16355;BME280;8287;51.644;8.494;2023-04-30T01:45:18;101098.31;;;7.80;89.58
16355;BME280;8287;51.644;8.494;2023-04-30T01:47:51;101099.38;;;7.84;88.39
16355;BME280;8287;51.644;8.494;2023-04-30T01:50:24;101108.88;;;7.80;88.46
16355;BME280;8287;51.644;8.494;2023-04-30T01:52:58;101101.25;;;7.74;88.48
16355;BME280;8287;51.644;8.494;2023-04-30T01:55:27;101097.03;;;7.73;87.91
16355;BME280;8287;51.644;8.494;2023-04-30T01:57:57;101109.69;;;7.66;88.85
16355;BME280;8287;51.644;8.494;2023-04-30T02:00:27;101102.84;;;7.55;88.88
16355;BME280;8287;51.644;8.494;2023-04-30T02:02:54;101116.25;;;7.58;89.42
16355;BME280;8287;51.644;8.494;2023-04-30T02:05:21;101112.06;;;7.57;89.67
16355;BME280;8287;51.644;8.494;2023-04-30T02:07:49;101116.28;;;7.53;88.94
16355;BME280;8287;51.644;8.494;2023-04-30T02:10:16;101119.47;;;7.50;89.36
16355;BME280;8287;51.644;8.494;2023-04-30T02:12:43;101126.56;;;7.40;88.97
16355;BME280;8287;51.644;8.494;2023-04-30T02:15:10;101117.34;;;7.42;89.78
16355;BME280;8287;51.644;8.494;2023-04-30T02:17:38;101114.69;;;7.37;90.64
16355;BME280;8287;51.644;8.494;2023-04-30T02:20:06;101121.81;;;7.32;91.06
16355;BME280;8287;51.644;8.494;2023-04-30T02:22:33;101121.56;;;7.28;91.66
16355;BME280;8287;51.644;8.494;2023-04-30T02:25:00;101125.78;;;7.29;91.56
16355;BME280;8287;51.644;8.494;2023-04-30T02:27:29;101129.97;;;7.30;91.76
16355;BME280;8287;51.644;8.494;2023-04-30T02:29:56;101126.28;;;7.31;91.94
16355;BME280;8287;51.644;8.494;2023-04-30T02:32:23;101111.81;;;7.24;91.71
16355;BME280;8287;51.644;8.494;2023-04-30T02:34:51;101128.16;;;7.21;92.27
16355;BME280;8287;51.644;8.494;2023-04-30T02:37:17;101119.72;;;7.24;92.01
16355;BME280;8287;51.644;8.494;2023-04-30T02:39:44;101117.31;;;7.22;92.57
16355;BME280;8287;51.644;8.494;2023-04-30T02:42:11;101128.66;;;7.28;92.46
16355;BME280;8287;51.644;8.494;2023-04-30T02:44:37;101122.59;;;7.22;92.18
16355;BME280;8287;51.644;8.494;2023-04-30T02:47:04;101121.56;;;7.28;92.30
16355;BME280;8287;51.644;8.494;2023-04-30T02:49:31;101116.56;;;7.22;91.58
16355;BME280;8287;51.644;8.494;2023-04-30T02:51:59;101125.25;;;7.17;91.65
16355;BME280;8287;51.644;8.494;2023-04-30T02:54:26;101126.03;;;7.23;91.62
16355;BME280;8287;51.644;8.494;2023-04-30T02:56:52;101128.66;;;7.18;91.10
16355;BME280;8287;51.644;8.494;2023-04-30T02:59:19;101131.56;;;7.21;91.35
16355;BME280;8287;51.644;8.494;2023-04-30T03:01:45;101135.25;;;7.20;91.32
16355;BME280;8287;51.644;8.494;2023-04-30T03:04:12;101137.09;;;7.15;90.65
16355;BME280;8287;51.644;8.494;2023-04-30T03:06:38;101139.97;;;7.03;90.45
16355;BME280;8287;51.644;8.494;2023-04-30T03:09:06;101131.78;;;7.00;90.79
16355;BME280;8287;51.644;8.494;2023-04-30T03:11:33;101139.41;;;6.86;90.56
16355;BME280;8287;51.644;8.494;2023-04-30T03:14:02;101136.25;;;6.94;91.42
16355;BME280;8287;51.644;8.494;2023-04-30T03:16:28;101135.72;;;6.97;91.10
16355;BME280;8287;51.644;8.494;2023-04-30T03:18:55;101131.75;;;6.95;90.43
16355;BME280;8287;51.644;8.494;2023-04-30T03:21:22;101144.16;;;6.94;90.93
16355;BME280;8287;51.644;8.494;2023-04-30T03:23:49;101142.31;;;6.90;92.10
16355;BME280;8287;51.644;8.494;2023-04-30T03:26:17;101142.06;;;7.01;92.78
16355;BME280;8287;51.644;8.494;2023-04-30T03:28:44;101140.50;;;7.10;92.90
16355;BME280;8287;51.644;8.494;2023-04-30T03:31:10;101143.41;;;7.14;92.66
16355;BME280;8287;51.644;8.494;2023-04-30T03:33:37;101137.34;;;7.13;91.75
16355;BME280;8287;51.644;8.494;2023-04-30T03:36:04;101136.00;;;7.11;91.91
16355;BME280;8287;51.644;8.494;2023-04-30T03:38:31;101145.25;;;7.13;91.25
16355;BME280;8287;51.644;8.494;2023-04-30T03:40:58;101148.41;;;7.15;90.70
16355;BME280;8287;51.644;8.494;2023-04-30T03:43:26;101146.31;;;7.12;90.83
16355;BME280;8287;51.644;8.494;2023-04-30T03:45:52;101152.38;;;7.18;90.58
16355;BME280;8287;51.644;8.494;2023-04-30T03:48:19;101151.59;;;7.17;90.49
16355;BME280;8287;51.644;8.494;2023-04-30T03:50:45;101150.53;;;7.18;90.42
16355;BME280;8287;51.644;8.494;2023-04-30T03:53:12;101157.38;;;7.24;90.82
16355;BME280;8287;51.644;8.494;2023-04-30T03:55:39;101147.91;;;7.23;91.74
16355;BME280;8287;51.644;8.494;2023-04-30T03:58:05;101152.09;;;7.24;92.55
16355;BME280;8287;51.644;8.494;2023-04-30T04:00:33;101157.66;;;7.23;92.83
16355;BME280;8287;51.644;8.494;2023-04-30T04:03:01;101156.34;;;7.30;93.59
16355;BME280;8287;51.644;8.494;2023-04-30T04:05:27;101156.09;;;7.42;93.54
16355;BME280;8287;51.644;8.494;2023-04-30T04:07:54;101156.88;;;7.47;93.69
16355;BME280;8287;51.644;8.494;2023-04-30T04:10:21;101156.88;;;7.47;93.61
16355;BME280;8287;51.644;8.494;2023-04-30T04:12:47;101147.66;;;7.50;93.71
16355;BME280;8287;51.644;8.494;2023-04-30T04:15:14;101148.72;;;7.49;94.05
16355;BME280;8287;51.644;8.494;2023-04-30T04:17:42;101152.66;;;7.46;94.55
16355;BME280;8287;51.644;8.494;2023-04-30T04:20:09;101153.72;;;7.40;94.47
16355;BME280;8287;51.644;8.494;2023-04-30T04:22:37;101150.56;;;7.43;95.05
16355;BME280;8287;51.644;8.494;2023-04-30T04:25:04;101153.72;;;7.40;95.60
16355;BME280;8287;51.644;8.494;2023-04-30T04:27:32;101152.41;;;7.33;95.77
16355;BME280;8287;51.644;8.494;2023-04-30T04:29:58;101158.97;;;7.30;96.03
16355;BME280;8287;51.644;8.494;2023-04-30T04:32:26;101159.25;;;7.44;96.17
16355;BME280;8287;51.644;8.494;2023-04-30T04:34:54;101163.47;;;7.45;96.21
16355;BME280;8287;51.644;8.494;2023-04-30T04:37:21;101164.78;;;7.47;95.97
16355;BME280;8287;51.644;8.494;2023-04-30T04:39:47;101157.41;;;7.54;95.99
16355;BME280;8287;51.644;8.494;2023-04-30T04:42:14;101170.06;;;7.62;95.78
16355;BME280;8287;51.644;8.494;2023-04-30T04:44:41;101159.25;;;7.74;95.68
16355;BME280;8287;51.644;8.494;2023-04-30T04:47:08;101155.56;;;7.85;95.20
16355;BME280;8287;51.644;8.494;2023-04-30T04:49:36;101152.91;;;7.95;94.30
16355;BME280;8287;51.644;8.494;2023-04-30T04:52:05;101157.94;;;8.01;94.12
16355;BME280;8287;51.644;8.494;2023-04-30T04:54:31;101153.16;;;7.98;94.13
16355;BME280;8287;51.644;8.494;2023-04-30T04:56:58;101152.38;;;7.93;93.72
16355;BME280;8287;51.644;8.494;2023-04-30T04:59:25;101157.91;;;7.96;93.82
16355;BME280;8287;51.644;8.494;2023-04-30T05:01:52;101153.16;;;7.98;94.17
16355;BME280;8287;51.644;8.494;2023-04-30T05:04:18;101157.38;;;8.04;94.09
16355;BME280;8287;51.644;8.494;2023-04-30T05:06:45;101154.47;;;8.16;93.61
16355;BME280;8287;51.644;8.494;2023-04-30T05:09:13;101153.13;;;8.18;93.41
16355;BME280;8287;51.644;8.494;2023-04-30T05:11:39;101163.19;;;8.26;93.23
16355;BME280;8287;51.644;8.494;2023-04-30T05:14:08;101152.59;;;8.31;93.31
16355;BME280;8287;51.644;8.494;2023-04-30T05:16:34;101148.06;;;8.42;92.69
16355;BME280;8287;51.644;8.494;2023-04-30T05:19:01;101154.69;;;8.39;92.95
16355;BME280;8287;51.644;8.494;2023-04-30T05:21:27;101151.75;;;8.46;93.01
16355;BME280;8287;51.644;8.494;2023-04-30T05:23:56;101149.88;;;8.56;92.64
16355;BME280;8287;51.644;8.494;2023-04-30T05:26:24;101146.97;;;8.58;93.41
16355;BME280;8287;51.644;8.494;2023-04-30T05:28:50;101144.06;;;8.59;93.70
16355;BME280;8287;51.644;8.494;2023-04-30T05:31:17;101149.81;;;8.66;93.60
16355;BME280;8287;51.644;8.494;2023-04-30T05:33:44;101142.94;;;8.70;94.37
16355;BME280;8287;51.644;8.494;2023-04-30T05:36:10;101148.44;;;8.79;94.15
16355;BME280;8287;51.644;8.494;2023-04-30T05:38:37;101145.53;;;8.85;93.34
16355;BME280;8287;51.644;8.494;2023-04-30T05:41:04;101150.75;;;8.95;93.38
16355;BME280;8287;51.644;8.494;2023-04-30T05:43:32;101154.88;;;9.11;92.52
16355;BME280;8287;51.644;8.494;2023-04-30T05:45:58;101155.88;;;9.20;92.09
16355;BME280;8287;51.644;8.494;2023-04-30T05:48:25;101165.81;;;9.33;91.20
16355;BME280;8287;51.644;8.494;2023-04-30T05:50:52;101169.53;;;9.32;91.48
16355;BME280;8287;51.644;8.494;2023-04-30T05:53:21;101159.47;;;9.34;92.20
16355;BME280;8287;51.644;8.494;2023-04-30T05:55:47;101155.94;;;9.49;91.74
16355;BME280;8287;51.644;8.494;2023-04-30T05:58:14;101166.22;;;9.50;91.52
16355;BME280;8287;51.644;8.494;2023-04-30T06:00:42;101160.91;;;9.55;90.67
16355;BME280;8287;51.644;8.494;2023-04-30T06:03:08;101153.00;;;9.50;90.32
16355;BME280;8287;51.644;8.494;2023-04-30T06:05:35;101170.56;;;9.69;90.54
16355;BME280;8287;51.644;8.494;2023-04-30T06:08:02;101161.47;;;9.80;90.01
16355;BME280;8287;51.644;8.494;2023-04-30T06:10:29;101164.91;;;9.81;88.99
16355;BME280;8287;51.644;8.494;2023-04-30T06:12:55;101167.25;;;9.87;87.71
16355;BME280;8287;51.644;8.494;2023-04-30T06:15:22;101166.75;;;9.85;87.59
16355;BME280;8287;51.644;8.494;2023-04-30T06:17:50;101155.78;;;9.97;87.22
16355;BME280;8287;51.644;8.494;2023-04-30T06:20:17;101161.03;;;10.02;86.76
16355;BME280;8287;51.644;8.494;2023-04-30T06:22:43;101161.00;;;10.07;87.36
16355;BME280;8287;51.644;8.494;2023-04-30T06:25:10;101165.88;;;10.23;87.74
16355;BME280;8287;51.644;8.494;2023-04-30T06:27:36;101161.69;;;10.41;86.04
16355;BME280;8287;51.644;8.494;2023-04-30T06:30:04;101160.06;;;10.45;86.11
16355;BME280;8287;51.644;8.494;2023-04-30T06:32:30;101168.34;;;10.62;85.43
16355;BME280;8287;51.644;8.494;2023-04-30T06:34:58;101152.91;;;10.69;85.37
16355;BME280;8287;51.644;8.494;2023-04-30T06:37:25;101157.53;;;10.77;85.12
16355;BME280;8287;51.644;8.494;2023-04-30T06:39:52;101163.72;;;10.91;85.39
16355;BME280;8287;51.644;8.494;2023-04-30T06:42:18;101154.50;;;11.07;83.97
16355;BME280;8287;51.644;8.494;2023-04-30T06:44:45;101160.38;;;11.04;83.78
16355;BME280;8287;51.644;8.494;2023-04-30T06:47:11;101164.09;;;11.21;84.38
16355;BME280;8287;51.644;8.494;2023-04-30T06:49:38;101160.78;;;11.29;82.83
16355;BME280;8287;51.644;8.494;2023-04-30T06:52:06;101168.69;;;11.34;82.26
16355;BME280;8287;51.644;8.494;2023-04-30T06:54:32;101171.41;;;11.48;82.38
16355;BME280;8287;51.644;8.494;2023-04-30T06:56:59;101166.97;;;11.62;81.94
16355;BME280;8287;51.644;8.494;2023-04-30T06:59:26;101171.09;;;11.68;80.39
16355;BME280;8287;51.644;8.494;2023-04-30T07:01:52;101173.09;;;11.76;80.46
16355;BME280;8287;51.644;8.494;2023-04-30T07:04:19;101172.22;;;11.80;80.20
16355;BME280;8287;51.644;8.494;2023-04-30T07:06:46;101175.91;;;11.98;79.74
16355;BME280;8287;51.644;8.494;2023-04-30T07:09:14;101173.56;;;12.10;79.35
16355;BME280;8287;51.644;8.494;2023-04-30T07:11:40;101169.72;;;12.16;79.14
16355;BME280;8287;51.644;8.494;2023-04-30T07:14:07;101167.88;;;12.16;78.66
16355;BME280;8287;51.644;8.494;2023-04-30T07:16:34;101166.31;;;12.29;78.65
16355;BME280;8287;51.644;8.494;2023-04-30T07:19:00;101165.91;;;12.62;77.27
16355;BME280;8287;51.644;8.494;2023-04-30T07:21:27;101166.06;;;12.93;77.80
16355;BME280;8287;51.644;8.494;2023-04-30T07:23:53;101158.94;;;13.15;76.79
16355;BME280;8287;51.644;8.494;2023-04-30T07:26:21;101165.94;;;13.11;76.27
16355;BME280;8287;51.644;8.494;2023-04-30T07:28:49;101160.47;;;13.51;75.46
16355;BME280;8287;51.644;8.494;2023-04-30T07:31:15;101167.47;;;13.91;74.48
16355;BME280;8287;51.644;8.494;2023-04-30T07:33:43;101159.31;;;14.18;71.69
16355;BME280;8287;51.644;8.494;2023-04-30T07:36:10;101151.56;;;14.39;70.98
16355;BME280;8287;51.644;8.494;2023-04-30T07:38:36;101159.47;;;14.61;69.94
16355;BME280;8287;51.644;8.494;2023-04-30T07:41:03;101160.91;;;14.75;67.86
16355;BME280;8287;51.644;8.494;2023-04-30T07:43:31;101156.09;;;15.03;67.29
16355;BME280;8287;51.644;8.494;2023-04-30T07:45:58;101165.53;;;15.26;66.11
16355;BME280;8287;51.644;8.494;2023-04-30T07:48:25;101163.47;;;15.57;66.89
16355;BME280;8287;51.644;8.494;2023-04-30T07:50:51;101164.38;;;15.86;66.73
16355;BME280;8287;51.644;8.494;2023-04-30T07:53:18;101170.53;;;15.78;60.83
16355;BME280;8287;51.644;8.494;2023-04-30T07:55:44;101162.97;;;15.89;63.58
16355;BME280;8287;51.644;8.494;2023-04-30T07:58:11;101164.13;;;16.17;62.63
16355;BME280;8287;51.644;8.494;2023-04-30T08:00:39;101160.78;;;16.37;62.86
16355;BME280;8287;51.644;8.494;2023-04-30T08:03:06;101158.19;;;16.49;61.59
16355;BME280;8287;51.644;8.494;2023-04-30T08:05:33;101164.25;;;16.66;60.84
16355;BME280;8287;51.644;8.494;2023-04-30T08:08:00;101170.56;;;16.62;58.43
16355;BME280;8287;51.644;8.494;2023-04-30T08:10:26;101168.03;;;16.65;59.40
16355;BME280;8287;51.644;8.494;2023-04-30T08:12:53;101167.34;;;16.77;58.45
16355;BME280;8287;51.644;8.494;2023-04-30T08:15:20;101178.13;;;16.60;57.18
16355;BME280;8287;51.644;8.494;2023-04-30T08:17:49;101169.91;;;16.65;59.47
16355;BME280;8287;51.644;8.494;2023-04-30T08:20:16;101169.97;;;16.56;60.60
16355;BME280;8287;51.644;8.494;2023-04-30T08:22:43;101176.13;;;17.06;59.67
16355;BME280;8287;51.644;8.494;2023-04-30T08:25:10;101168.66;;;17.32;59.66
16355;BME280;8287;51.644;8.494;2023-04-30T08:27:37;101171.22;;;17.28;57.31
16355;BME280;8287;51.644;8.494;2023-04-30T08:30:05;101170.00;;;16.97;56.52
16355;BME280;8287;51.644;8.494;2023-04-30T08:32:33;101165.06;;;17.07;59.42
16355;BME280;8287;51.644;8.494;2023-04-30T08:35:01;101161.59;;;17.27;56.88
16355;BME280;8287;51.644;8.494;2023-04-30T08:37:27;101165.31;;;17.35;57.99
16355;BME280;8287;51.644;8.494;2023-04-30T08:39:58;101168.72;;;17.44;57.76
16355;BME280;8287;51.644;8.494;2023-04-30T08:42:29;101159.63;;;17.57;58.96
16355;BME280;8287;51.644;8.494;2023-04-30T08:44:58;101171.50;;;17.68;57.65
16355;BME280;8287;51.644;8.494;2023-04-30T08:47:26;101172.91;;;17.53;54.70
16355;BME280;8287;51.644;8.494;2023-04-30T08:49:53;101161.97;;;17.17;54.85
16355;BME280;8287;51.644;8.494;2023-04-30T08:52:21;101176.47;;;16.96;57.58
16355;BME280;8287;51.644;8.494;2023-04-30T08:54:49;101161.38;;;17.41;58.52
16355;BME280;8287;51.644;8.494;2023-04-30T08:57:18;101165.00;;;17.57;58.38
16355;BME280;8287;51.644;8.494;2023-04-30T08:59:45;101164.84;;;17.74;57.22
16355;BME280;8287;51.644;8.494;2023-04-30T09:02:12;101156.81;;;17.86;55.94
16355;BME280;8287;51.644;8.494;2023-04-30T09:04:38;101156.47;;;17.87;56.08
16355;BME280;8287;51.644;8.494;2023-04-30T09:07:05;101164.53;;;17.99;57.86
16355;BME280;8287;51.644;8.494;2023-04-30T09:09:38;101155.13;;;17.93;56.46
16355;BME280;8287;51.644;8.494;2023-04-30T09:12:16;101154.38;;;18.05;56.94
16355;BME280;8287;51.644;8.494;2023-04-30T09:14:57;101155.25;;;17.85;56.96
16355;BME280;8287;51.644;8.494;2023-04-30T09:17:24;101160.63;;;17.97;56.44
16355;BME280;8287;51.644;8.494;2023-04-30T09:19:51;101164.34;;;18.04;56.65
16355;BME280;8287;51.644;8.494;2023-04-30T09:22:18;101165.53;;;17.95;56.49
16355;BME280;8287;51.644;8.494;2023-04-30T09:24:47;101163.34;;;18.09;56.64
16355;BME280;8287;51.644;8.494;2023-04-30T09:27:16;101165.84;;;17.81;53.66
16355;BME280;8287;51.644;8.494;2023-04-30T09:29:42;101163.31;;;17.52;55.67
16355;BME280;8287;51.644;8.494;2023-04-30T09:32:10;101158.13;;;17.06;59.37
16355;BME280;8287;51.644;8.494;2023-04-30T09:34:37;101160.22;;;17.01;57.57
16355;BME280;8287;51.644;8.494;2023-04-30T09:37:04;101151.97;;;17.26;57.45
16355;BME280;8287;51.644;8.494;2023-04-30T09:39:31;101153.72;;;17.63;55.83
16355;BME280;8287;51.644;8.494;2023-04-30T09:42:08;101166.72;;;17.41;57.27
16355;BME280;8287;51.644;8.494;2023-04-30T09:44:36;101153.81;;;17.55;57.98
16355;BME280;8287;51.644;8.494;2023-04-30T09:47:03;101150.69;;;17.53;57.95
16355;BME280;8287;51.644;8.494;2023-04-30T09:49:29;101150.56;;;17.82;57.19
16355;BME280;8287;51.644;8.494;2023-04-30T09:51:57;101154.72;;;18.03;56.22
16355;BME280;8287;51.644;8.494;2023-04-30T09:54:25;101150.03;;;18.24;56.37
16355;BME280;8287;51.644;8.494;2023-04-30T09:56:53;101148.13;;;18.13;56.65
16355;BME280;8287;51.644;8.494;2023-04-30T09:59:26;101149.81;;;18.17;57.53
16355;BME280;8287;51.644;8.494;2023-04-30T10:01:56;101147.44;;;18.04;55.77
16355;BME280;8287;51.644;8.494;2023-04-30T10:04:23;101139.06;;;18.17;56.86
16355;BME280;8287;51.644;8.494;2023-04-30T10:06:53;101137.88;;;18.51;55.26
16355;BME280;8287;51.644;8.494;2023-04-30T10:09:25;101141.91;;;18.69;56.72
16355;BME280;8287;51.644;8.494;2023-04-30T10:11:55;101144.13;;;18.79;55.91
16355;BME280;8287;51.644;8.494;2023-04-30T10:14:25;101142.06;;;18.88;55.23
16355;BME280;8287;51.644;8.494;2023-04-30T10:16:58;101140.94;;;18.89;54.45
16355;BME280;8287;51.644;8.494;2023-04-30T10:19:30;101127.66;;;18.08;54.16
16355;BME280;8287;51.644;8.494;2023-04-30T10:21:57;101127.50;;;18.61;56.65
16355;BME280;8287;51.644;8.494;2023-04-30T10:24:25;101129.78;;;18.87;54.73
16355;BME280;8287;51.644;8.494;2023-04-30T10:26:52;101131.88;;;18.93;53.50
16355;BME280;8287;51.644;8.494;2023-04-30T10:29:22;101123.53;;;19.10;51.93
16355;BME280;8287;51.644;8.494;2023-04-30T10:31:50;101120.06;;;19.22;51.38
16355;BME280;8287;51.644;8.494;2023-04-30T10:34:26;101119.72;;;18.84;51.64
16355;BME280;8287;51.644;8.494;2023-04-30T10:36:59;101123.88;;;18.81;51.62
16355;BME280;8287;51.644;8.494;2023-04-30T10:39:30;101106.50;;;18.91;52.69
16355;BME280;8287;51.644;8.494;2023-04-30T10:42:02;101111.22;;;19.21;51.32
16355;BME280;8287;51.644;8.494;2023-04-30T10:44:31;101111.59;;;19.35;51.43
16355;BME280;8287;51.644;8.494;2023-04-30T10:47:00;101107.22;;;19.43;51.27
16355;BME280;8287;51.644;8.494;2023-04-30T10:49:28;101105.16;;;19.67;53.21
16355;BME280;8287;51.644;8.494;2023-04-30T10:51:57;101107.34;;;19.77;50.27
16355;BME280;8287;51.644;8.494;2023-04-30T10:54:26;101111.78;;;19.70;50.75
16355;BME280;8287;51.644;8.494;2023-04-30T10:56:58;101102.50;;;20.14;52.08
16355;BME280;8287;51.644;8.494;2023-04-30T10:59:35;101094.75;;;20.43;50.66
16355;BME280;8287;51.644;8.494;2023-04-30T11:02:03;101085.28;;;20.49;51.64
16355;BME280;8287;51.644;8.494;2023-04-30T11:04:30;101087.25;;;20.52;48.80
16355;BME280;8287;51.644;8.494;2023-04-30T11:07:01;101083.94;;;20.58;48.56
16355;BME280;8287;51.644;8.494;2023-04-30T11:09:38;101081.09;;;20.51;49.77
16355;BME280;8287;51.644;8.494;2023-04-30T11:12:10;101075.31;;;20.68;47.05
16355;BME280;8287;51.644;8.494;2023-04-30T11:14:39;101077.09;;;20.80;48.13
16355;BME280;8287;51.644;8.494;2023-04-30T11:17:09;101075.75;;;20.89;47.66
16355;BME280;8287;51.644;8.494;2023-04-30T11:19:41;101075.56;;;20.63;46.99
16355;BME280;8287;51.644;8.494;2023-04-30T11:22:16;101076.44;;;20.67;46.97
16355;BME280;8287;51.644;8.494;2023-04-30T11:24:51;101071.91;;;20.71;48.91
16355;BME280;8287;51.644;8.494;2023-04-30T11:27:23;101074.25;;;20.38;47.39
16355;BME280;8287;51.644;8.494;2023-04-30T11:29:51;101064.13;;;20.66;48.45
16355;BME280;8287;51.644;8.494;2023-04-30T11:32:20;101059.31;;;21.13;48.48
16355;BME280;8287;51.644;8.494;2023-04-30T11:34:48;101065.38;;;20.53;48.87
16355;BME280;8287;51.644;8.494;2023-04-30T11:37:18;101059.16;;;20.68;48.48
16355;BME280;8287;51.644;8.494;2023-04-30T11:39:45;101053.78;;;21.25;46.77
16355;BME280;8287;51.644;8.494;2023-04-30T11:42:15;101052.22;;;21.47;46.42
16355;BME280;8287;51.644;8.494;2023-04-30T11:44:42;101051.28;;;21.58;47.07
16355;BME280;8287;51.644;8.494;2023-04-30T11:47:08;101043.34;;;20.86;44.30
16355;BME280;8287;51.644;8.494;2023-04-30T11:49:37;101046.44;;;21.26;47.52
16355;BME280;8287;51.644;8.494;2023-04-30T11:52:08;101040.59;;;21.43;45.45
16355;BME280;8287;51.644;8.494;2023-04-30T11:54:36;101033.69;;;21.90;46.09
16355;BME280;8287;51.644;8.494;2023-04-30T11:57:06;101029.03;;;22.13;45.13
16355;BME280;8287;51.644;8.494;2023-04-30T11:59:50;101026.09;;;22.22;45.47
16355;BME280;8287;51.644;8.494;2023-04-30T12:02:17;101027.25;;;22.24;44.60
16355;BME280;8287;51.644;8.494;2023-04-30T12:04:45;101022.19;;;22.45;43.50
16355;BME280;8287;51.644;8.494;2023-04-30T12:07:12;101016.44;;;22.50;44.51
16355;BME280;8287;51.644;8.494;2023-04-30T12:09:52;101013.81;;;22.28;43.95
16355;BME280;8287;51.644;8.494;2023-04-30T12:12:25;101015.00;;;22.56;43.05
16355;BME280;8287;51.644;8.494;2023-04-30T12:14:52;101016.19;;;21.36;43.26
16355;BME280;8287;51.644;8.494;2023-04-30T12:17:29;101010.38;;;21.56;45.27
16355;BME280;8287;51.644;8.494;2023-04-30T12:19:57;101009.84;;;21.70;44.19
16355;BME280;8287;51.644;8.494;2023-04-30T12:22:24;101009.16;;;21.99;43.02
16355;BME280;8287;51.644;8.494;2023-04-30T12:24:51;101001.00;;;22.21;44.24
16355;BME280;8287;51.644;8.494;2023-04-30T12:27:18;100996.72;;;22.46;42.59
16355;BME280;8287;51.644;8.494;2023-04-30T12:29:45;101000.00;;;22.95;44.27
16355;BME280;8287;51.644;8.494;2023-04-30T12:32:13;100989.16;;;22.92;41.25
16355;BME280;8287;51.644;8.494;2023-04-30T12:34:42;100989.03;;;22.81;44.58
16355;BME280;8287;51.644;8.494;2023-04-30T12:37:13;100991.19;;;22.10;42.79
16355;BME280;8287;51.644;8.494;2023-04-30T12:39:40;100995.34;;;21.33;42.70
16355;BME280;8287;51.644;8.494;2023-04-30T12:42:07;100988.34;;;21.28;44.30
16355;BME280;8287;51.644;8.494;2023-04-30T12:44:42;100992.25;;;22.31;41.88
16355;BME280;8287;51.644;8.494;2023-04-30T12:47:09;100995.28;;;21.74;42.52
16355;BME280;8287;51.644;8.494;2023-04-30T12:49:35;100986.25;;;21.41;42.39
16355;BME280;8287;51.644;8.494;2023-04-30T12:52:05;100978.41;;;21.55;41.95
16355;BME280;8287;51.644;8.494;2023-04-30T12:54:36;100979.25;;;21.36;42.41
16355;BME280;8287;51.644;8.494;2023-04-30T12:57:05;100970.78;;;22.12;43.73
16355;BME280;8287;51.644;8.494;2023-04-30T12:59:35;100963.69;;;22.30;42.87
16355;BME280;8287;51.644;8.494;2023-04-30T13:02:06;100970.56;;;22.87;44.00
16355;BME280;8287;51.644;8.494;2023-04-30T13:04:33;100964.84;;;23.28;40.89
16355;BME280;8287;51.644;8.494;2023-04-30T13:07:00;100956.50;;;22.71;43.03
16355;BME280;8287;51.644;8.494;2023-04-30T13:09:27;100957.72;;;23.57;41.81